Azalia, Michigan
Current Conditions -  °F | °C
As of 10:56 PM on Wednesday 22 Oct 2014 (Local Time) from KTTF Reporting Station
Clear Clear  
Wind Chill:   Ceiling: Unl
Heat Index:   Visibility: 10mi
Dew Point:   Wind: 6mph
Humidity: 87%   Direction: 10°N
Pressure: 30.26"   Gusts: NA
Location:  42.02°N, 83.67°W
Report Text: KTTF 230256Z AUTO 01005KT 10SM CLR 06/04 A3026 RMK AO2
Loading
Personal Weather Stations






























Interactive Weather Map
Tropical Storm Tracking
New forecast layout! Learn more

10-Day Weather Forecast

Advertisements
Track Severe Weather on mobile